Time;durP1;ratioP1;P1;durP2;ratioP2;P2;SDS_P1;SDS_P2;PMS_P1;PMS_P2;Temp;Humidity;BMP_temperature;BMP_pressure;BME280_temperature;BME280_humidity;BME280_pressure;Samples;Min_cycle;Max_cycle;Signal;HPM_P1;HPM_P2
2023/07/31 00:01:40;;;;;;;4.70;4.00;;;;;;;;;;5135734;27;20201;-53
2023/07/31 00:04:06;;;;;;;6.10;4.60;;;;;;;;;;5116904;27;20204;-53
2023/07/31 00:06:32;;;;;;;5.17;3.80;;;;;;;;;;5129724;27;20221;-53
2023/07/31 00:08:59;;;;;;;4.43;4.03;;;;;;;;;;5134904;27;20221;-54
2023/07/31 00:11:25;;;;;;;5.30;4.03;;;;;;;;;;5135340;27;20217;-53
2023/07/31 00:13:51;;;;;;;4.57;4.03;;;;;;;;;;5135312;27;20270;-53
2023/07/31 00:16:17;;;;;;;5.53;4.23;;;;;;;;;;5135047;27;20665;-53
2023/07/31 00:18:43;;;;;;;5.23;4.40;;;;;;;;;;5135362;27;20201;-53
2023/07/31 00:21:09;;;;;;;4.40;3.80;;;;;;;;;;5134480;27;20227;-53
2023/07/31 00:23:35;;;;;;;4.97;4.50;;;;;;;;;;5132910;27;20751;-53
2023/07/31 00:26:02;;;;;;;5.20;4.70;;;;;;;;;;5131407;27;20231;-54
2023/07/31 00:28:29;;;;;;;5.07;4.57;;;;;;;;;;5135261;27;20284;-53
2023/07/31 00:30:55;;;;;;;5.33;4.60;;;;;;;;;;5135226;27;20225;-53
2023/07/31 00:33:21;;;;;;;6.27;4.80;;;;;;;;;;5135084;27;20241;-53
2023/07/31 00:35:47;;;;;;;6.43;5.20;;;;;;;;;;5134956;27;20198;-53
2023/07/31 00:38:13;;;;;;;6.13;4.57;;;;;;;;;;5135014;27;20197;-53
2023/07/31 00:40:39;;;;;;;5.97;4.77;;;;;;;;;;5133567;27;20230;-53
2023/07/31 00:43:06;;;;;;;5.27;4.77;;;;;;;;;;5133717;27;20502;-53
2023/07/31 00:45:33;;;;;;;4.53;4.13;;;;;;;;;;5134910;27;20288;-54
2023/07/31 00:47:59;;;;;;;6.03;4.47;;;;;;;;;;5134824;27;20194;-54
2023/07/31 00:50:26;;;;;;;6.17;4.40;;;;;;;;;;5134906;27;20231;-54
2023/07/31 00:52:52;;;;;;;4.13;3.73;;;;;;;;;;5134775;27;20202;-54
2023/07/31 00:55:18;;;;;;;6.63;4.37;;;;;;;;;;5134552;27;20221;-54
2023/07/31 00:57:45;;;;;;;4.30;3.90;;;;;;;;;;5134630;27;20213;-54
2023/07/31 01:00:13;;;;;;;5.63;3.90;;;;;;;;;;5134632;27;20251;-54
2023/07/31 01:02:39;;;;;;;3.90;3.60;;;;;;;;;;5134535;27;20193;-54
2023/07/31 01:05:05;;;;;;;5.17;4.57;;;;;;;;;;5134444;27;20223;-54
2023/07/31 01:07:34;;;;;;;4.83;4.40;;;;;;;;;;5134431;27;20220;-54
2023/07/31 01:10:03;;;;;;;6.43;4.37;;;;;;;;;;5134228;27;20233;-54
2023/07/31 01:12:30;;;;;;;4.57;4.13;;;;;;;;;;5134359;27;20197;-54
2023/07/31 01:15:03;;;;;;;4.83;4.13;;;;;;;;;;5134391;27;20205;-54
2023/07/31 01:17:31;;;;;;;4.80;4.40;;;;;;;;;;5134365;27;20197;-54
2023/07/31 01:19:59;;;;;;;4.83;4.30;;;;;;;;;;5134289;27;20227;-54
2023/07/31 01:22:32;;;;;;;5.23;4.37;;;;;;;;;;5134199;27;20200;-54
2023/07/31 01:25:06;;;;;;;5.73;4.13;;;;;;;;;;5134092;27;20244;-54
2023/07/31 01:27:36;;;;;;;5.37;4.87;;;;;;;;;;5134129;27;20195;-54
2023/07/31 01:30:10;;;;;;;4.50;4.10;;;;;;;;;;5133976;27;20713;-54
2023/07/31 01:32:37;;;;;;;4.47;4.07;;;;;;;;;;5133893;27;20189;-54
2023/07/31 01:35:03;;;;;;;4.83;4.13;;;;;;;;;;5133842;27;20193;-54
2023/07/31 01:37:29;;;;;;;5.60;4.20;;;;;;;;;;5133844;27;20220;-54
2023/07/31 01:39:56;;;;;;;4.47;3.80;;;;;;;;;;5133841;27;20659;-55
2023/07/31 01:42:22;;;;;;;5.73;4.20;;;;;;;;;;5133706;27;20194;-54
2023/07/31 01:44:49;;;;;;;4.40;3.77;;;;;;;;;;5133670;27;20197;-54
2023/07/31 01:47:15;;;;;;;5.77;3.97;;;;;;;;;;5133620;27;20199;-54
2023/07/31 01:49:41;;;;;;;5.03;3.70;;;;;;;;;;5133633;27;20300;-54
2023/07/31 01:52:07;;;;;;;5.07;4.53;;;;;;;;;;5133407;27;20208;-53
2023/07/31 01:54:33;;;;;;;4.50;4.10;;;;;;;;;;5133259;27;20202;-53
2023/07/31 01:56:59;;;;;;;4.73;4.27;;;;;;;;;;5133404;27;20196;-53
2023/07/31 01:59:25;;;;;;;5.87;4.40;;;;;;;;;;5133442;27;20233;-53
2023/07/31 02:01:52;;;;;;;5.97;4.73;;;;;;;;;;5133300;27;20193;-53
2023/07/31 02:04:18;;;;;;;5.70;4.60;;;;;;;;;;5133135;27;20202;-54
2023/07/31 02:06:44;;;;;;;5.43;4.53;;;;;;;;;;5133224;27;20533;-53
2023/07/31 02:09:10;;;;;;;5.03;4.50;;;;;;;;;;5133185;27;20204;-53
2023/07/31 02:11:36;;;;;;;4.97;4.47;;;;;;;;;;5132926;27;20233;-53
2023/07/31 02:14:02;;;;;;;4.30;3.90;;;;;;;;;;5133198;27;20197;-53
2023/07/31 02:16:28;;;;;;;4.40;3.80;;;;;;;;;;5133058;27;20246;-53
2023/07/31 02:18:56;;;;;;;5.00;4.50;;;;;;;;;;5133125;27;20201;-53
2023/07/31 02:21:22;;;;;;;5.37;4.33;;;;;;;;;;5132892;27;20617;-53
2023/07/31 02:23:48;;;;;;;5.40;4.30;;;;;;;;;;5133007;27;20215;-53
2023/07/31 02:26:14;;;;;;;5.13;4.30;;;;;;;;;;5132793;27;20224;-54
2023/07/31 02:28:42;;;;;;;4.77;4.30;;;;;;;;;;5132963;27;20625;-54
2023/07/31 02:31:08;;;;;;;5.03;4.50;;;;;;;;;;5132787;27;20253;-54
2023/07/31 02:33:34;;;;;;;5.47;4.10;;;;;;;;;;5132851;27;20229;-54
2023/07/31 02:36:02;;;;;;;4.47;4.07;;;;;;;;;;5132782;27;20193;-54
2023/07/31 02:38:28;;;;;;;5.03;4.37;;;;;;;;;;5133094;27;20225;-54
2023/07/31 02:40:54;;;;;;;5.93;5.00;;;;;;;;;;5132969;27;20189;-53
2023/07/31 02:43:20;;;;;;;5.07;4.60;;;;;;;;;;5132637;27;20421;-53
2023/07/31 02:45:46;;;;;;;5.37;4.83;;;;;;;;;;5132742;27;20197;-53
2023/07/31 02:48:12;;;;;;;5.57;4.97;;;;;;;;;;5132783;27;20198;-53
2023/07/31 02:50:38;;;;;;;5.57;4.83;;;;;;;;;;5132502;27;20602;-53
2023/07/31 02:53:05;;;;;;;5.13;4.73;;;;;;;;;;5132497;27;20292;-53
2023/07/31 02:55:31;;;;;;;5.10;4.63;;;;;;;;;;5132524;27;20246;-53
2023/07/31 02:57:58;;;;;;;5.27;4.80;;;;;;;;;;5132624;27;20208;-53
2023/07/31 03:00:24;;;;;;;4.70;4.30;;;;;;;;;;5132515;27;20621;-52
2023/07/31 03:02:50;;;;;;;5.47;4.40;;;;;;;;;;5132444;28;20969;-52
2023/07/31 03:05:16;;;;;;;5.33;4.93;;;;;;;;;;5133310;27;20201;-52
2023/07/31 03:07:42;;;;;;;5.80;5.13;;;;;;;;;;5136899;27;20205;-53
2023/07/31 03:10:10;;;;;;;5.70;4.90;;;;;;;;;;5136598;27;20202;-52
2023/07/31 03:12:36;;;;;;;5.60;5.13;;;;;;;;;;5136763;27;20212;-52
2023/07/31 03:15:02;;;;;;;5.33;4.83;;;;;;;;;;5136514;27;20197;-52
2023/07/31 03:17:28;;;;;;;5.83;5.33;;;;;;;;;;5136800;27;20293;-52
2023/07/31 03:19:54;;;;;;;5.60;5.20;;;;;;;;;;5136545;27;20644;-53
2023/07/31 03:22:20;;;;;;;6.07;5.47;;;;;;;;;;5136416;27;20221;-52
2023/07/31 03:24:46;;;;;;;6.00;5.40;;;;;;;;;;5136301;27;20295;-52
2023/07/31 03:27:13;;;;;;;5.90;5.30;;;;;;;;;;5136341;27;20201;-52
2023/07/31 03:29:39;;;;;;;5.90;5.40;;;;;;;;;;5136433;27;20193;-52
2023/07/31 03:32:05;;;;;;;7.70;6.13;;;;;;;;;;5136213;27;20205;-52
2023/07/31 03:34:32;;;;;;;6.80;6.20;;;;;;;;;;5136073;27;20296;-52
2023/07/31 03:36:58;;;;;;;6.87;5.70;;;;;;;;;;5136330;27;20202;-52
2023/07/31 03:39:24;;;;;;;6.33;5.33;;;;;;;;;;5135987;27;20266;-52
2023/07/31 03:41:50;;;;;;;7.73;5.73;;;;;;;;;;5136138;27;20270;-52
2023/07/31 03:44:17;;;;;;;5.83;5.23;;;;;;;;;;5135886;27;20285;-52
2023/07/31 03:46:43;;;;;;;6.77;5.50;;;;;;;;;;5136036;27;20200;-52
2023/07/31 03:49:09;;;;;;;7.83;5.60;;;;;;;;;;5135979;27;20197;-53
2023/07/31 03:51:35;;;;;;;7.43;6.00;;;;;;;;;;5135846;27;20225;-53
2023/07/31 03:54:01;;;;;;;5.80;5.30;;;;;;;;;;5135796;27;20205;-53
2023/07/31 03:56:27;;;;;;;6.30;5.43;;;;;;;;;;5135904;27;20243;-52
2023/07/31 03:58:53;;;;;;;5.33;4.93;;;;;;;;;;5135743;27;20197;-52
2023/07/31 04:01:20;;;;;;;6.00;5.10;;;;;;;;;;5135692;27;20215;-52
2023/07/31 04:03:46;;;;;;;5.60;5.10;;;;;;;;;;5135657;27;20205;-52
2023/07/31 04:06:12;;;;;;;6.00;5.40;;;;;;;;;;5135527;27;20194;-52
2023/07/31 04:08:38;;;;;;;5.17;4.70;;;;;;;;;;5135359;27;20601;-52
2023/07/31 04:11:04;;;;;;;6.30;5.10;;;;;;;;;;5135233;27;20225;-52
2023/07/31 04:13:30;;;;;;;4.70;4.30;;;;;;;;;;5135414;27;20199;-53
2023/07/31 04:15:56;;;;;;;5.00;4.60;;;;;;;;;;5135427;27;20189;-52
2023/07/31 04:18:25;;;;;;;4.33;3.80;;;;;;;;;;5135285;27;20196;-51
2023/07/31 04:20:51;;;;;;;4.17;3.70;;;;;;;;;;5135211;27;20224;-51
2023/07/31 04:23:17;;;;;;;4.83;4.27;;;;;;;;;;5134744;27;20197;-52
2023/07/31 04:25:43;;;;;;;4.67;4.27;;;;;;;;;;5134853;27;20228;-52
2023/07/31 04:28:09;;;;;;;4.10;3.80;;;;;;;;;;5135023;27;20198;-53
2023/07/31 04:30:36;;;;;;;3.80;3.40;;;;;;;;;;5134949;27;20836;-52
2023/07/31 04:33:02;;;;;;;3.63;3.30;;;;;;;;;;5134987;27;20237;-52
2023/07/31 04:35:29;;;;;;;5.40;3.50;;;;;;;;;;5134862;27;20729;-52
2023/07/31 04:37:55;;;;;;;3.60;3.30;;;;;;;;;;5135052;27;20665;-50
2023/07/31 04:40:21;;;;;;;3.10;2.90;;;;;;;;;;5134740;27;20232;-51
2023/07/31 04:42:47;;;;;;;3.93;2.83;;;;;;;;;;5134929;27;20198;-52
2023/07/31 04:45:14;;;;;;;3.30;3.00;;;;;;;;;;5134885;27;20209;-52
2023/07/31 04:47:40;;;;;;;2.90;2.70;;;;;;;;;;5134941;27;20208;-52
2023/07/31 04:50:06;;;;;;;2.87;2.67;;;;;;;;;;5134752;27;20217;-53
2023/07/31 04:52:34;;;;;;;3.40;2.90;;;;;;;;;;5134760;27;20189;-52
2023/07/31 04:55:00;;;;;;;3.23;2.57;;;;;;;;;;5134718;27;20201;-52
2023/07/31 04:57:26;;;;;;;2.77;2.37;;;;;;;;;;5134701;27;20233;-52
2023/07/31 04:59:52;;;;;;;2.30;2.10;;;;;;;;;;5134672;27;20192;-52
2023/07/31 05:02:18;;;;;;;2.40;2.20;;;;;;;;;;5134510;27;20203;-52
2023/07/31 05:04:44;;;;;;;2.70;2.43;;;;;;;;;;5134716;27;20197;-52
2023/07/31 05:07:10;;;;;;;2.20;2.00;;;;;;;;;;5134319;27;20215;-53
2023/07/31 05:09:39;;;;;;;2.00;1.90;;;;;;;;;;5134287;27;20249;-53
2023/07/31 05:12:05;;;;;;;2.17;1.97;;;;;;;;;;5134387;27;20680;-53
2023/07/31 05:14:31;;;;;;;2.27;2.07;;;;;;;;;;5133985;27;20203;-53
2023/07/31 05:16:57;;;;;;;1.87;1.77;;;;;;;;;;5134354;27;20201;-53
2023/07/31 05:19:23;;;;;;;2.00;1.70;;;;;;;;;;5134097;27;20201;-53
2023/07/31 05:21:50;;;;;;;1.77;1.67;;;;;;;;;;5134238;27;20238;-53
2023/07/31 05:24:16;;;;;;;1.83;1.67;;;;;;;;;;5133744;27;20709;-52
2023/07/31 05:26:43;;;;;;;1.60;1.50;;;;;;;;;;5130639;27;20198;-51
2023/07/31 05:29:09;;;;;;;1.50;1.40;;;;;;;;;;5133478;27;20200;-52
2023/07/31 05:31:35;;;;;;;1.60;1.50;;;;;;;;;;5133851;27;20656;-53
2023/07/31 05:34:01;;;;;;;1.87;1.70;;;;;;;;;;5133808;27;20851;-53
2023/07/31 05:36:27;;;;;;;2.27;1.70;;;;;;;;;;5133875;27;20557;-53
2023/07/31 05:38:53;;;;;;;1.50;1.40;;;;;;;;;;5133722;27;20247;-53
2023/07/31 05:41:19;;;;;;;1.70;1.60;;;;;;;;;;5133672;27;20254;-53
2023/07/31 05:43:46;;;;;;;2.30;1.70;;;;;;;;;;5133780;27;20201;-54
2023/07/31 05:46:12;;;;;;;1.70;1.60;;;;;;;;;;5133685;27;20202;-54
2023/07/31 05:48:38;;;;;;;1.87;1.60;;;;;;;;;;5133561;27;20653;-53
2023/07/31 05:51:04;;;;;;;2.27;1.73;;;;;;;;;;5133431;27;20221;-53
2023/07/31 05:53:30;;;;;;;2.10;1.90;;;;;;;;;;5133389;27;20190;-53
2023/07/31 05:55:56;;;;;;;2.10;1.90;;;;;;;;;;5133638;27;20254;-51
2023/07/31 05:58:22;;;;;;;1.60;1.50;;;;;;;;;;5133302;27;20193;-51
2023/07/31 06:00:50;;;;;;;2.23;2.03;;;;;;;;;;5133371;27;20197;-51
2023/07/31 06:03:16;;;;;;;2.10;1.90;;;;;;;;;;5133249;27;20641;-53
2023/07/31 06:05:42;;;;;;;2.73;2.00;;;;;;;;;;5133520;27;20223;-54
2023/07/31 06:08:08;;;;;;;2.43;2.13;;;;;;;;;;5133261;27;20215;-53
2023/07/31 06:10:34;;;;;;;2.33;2.00;;;;;;;;;;5133134;27;20340;-53
2023/07/31 06:13:00;;;;;;;2.37;1.93;;;;;;;;;;5133231;27;20201;-54
2023/07/31 06:15:26;;;;;;;2.83;2.07;;;;;;;;;;5133187;27;20671;-54
2023/07/31 06:17:54;;;;;;;1.83;1.73;;;;;;;;;;5133132;27;20205;-54
2023/07/31 06:20:20;;;;;;;2.00;1.63;;;;;;;;;;5132898;27;20225;-54
2023/07/31 06:22:46;;;;;;;2.30;2.10;;;;;;;;;;5132973;27;20209;-54
2023/07/31 06:25:12;;;;;;;1.90;1.80;;;;;;;;;;5132805;27;20586;-54
2023/07/31 06:27:38;;;;;;;2.60;2.20;;;;;;;;;;5133044;27;20189;-51
2023/07/31 06:30:05;;;;;;;2.10;2.00;;;;;;;;;;5132749;27;20313;-53
2023/07/31 06:32:31;;;;;;;2.30;2.10;;;;;;;;;;5132554;27;20196;-54
2023/07/31 06:34:58;;;;;;;2.60;2.40;;;;;;;;;;5133005;27;20570;-53
2023/07/31 06:37:24;;;;;;;2.83;2.30;;;;;;;;;;5132764;27;20201;-51
2023/07/31 06:39:50;;;;;;;2.17;1.97;;;;;;;;;;5131804;27;20273;-52
2023/07/31 06:42:16;;;;;;;2.87;2.57;;;;;;;;;;5132250;27;20217;-54
2023/07/31 06:44:42;;;;;;;2.43;2.23;;;;;;;;;;5132864;27;20192;-54
2023/07/31 06:47:08;;;;;;;2.97;2.60;;;;;;;;;;5132633;27;20223;-54
2023/07/31 06:49:34;;;;;;;3.03;2.73;;;;;;;;;;5132624;27;20199;-52
2023/07/31 06:52:01;;;;;;;4.63;3.00;;;;;;;;;;5132471;27;20304;-55
2023/07/31 06:54:27;;;;;;;4.20;3.70;;;;;;;;;;5132622;27;20671;-53
2023/07/31 06:56:53;;;;;;;5.50;4.03;;;;;;;;;;5132643;27;20284;-54
2023/07/31 06:59:19;;;;;;;4.30;3.67;;;;;;;;;;5132541;27;20193;-54
2023/07/31 07:01:45;;;;;;;8.73;4.03;;;;;;;;;;5132408;27;20242;-54
2023/07/31 07:04:11;;;;;;;6.43;4.67;;;;;;;;;;5132554;27;20194;-54
2023/07/31 07:06:37;;;;;;;7.87;4.70;;;;;;;;;;5132351;27;20237;-54
2023/07/31 07:09:05;;;;;;;7.27;5.33;;;;;;;;;;5132267;27;20718;-54
2023/07/31 07:11:31;;;;;;;10.10;6.00;;;;;;;;;;5132243;27;20229;-55
2023/07/31 07:13:57;;;;;;;9.40;6.17;;;;;;;;;;5132478;27;20197;-54
2023/07/31 07:16:23;;;;;;;10.57;6.60;;;;;;;;;;5132250;27;20190;-54
2023/07/31 07:18:49;;;;;;;9.97;6.93;;;;;;;;;;5132301;27;20197;-55
2023/07/31 07:21:17;;;;;;;11.93;6.43;;;;;;;;;;5132092;27;20717;-55
2023/07/31 07:23:43;;;;;;;13.30;6.60;;;;;;;;;;5132320;27;20692;-55
2023/07/31 07:26:11;;;;;;;14.13;7.23;;;;;;;;;;5132270;27;20223;-55
2023/07/31 07:28:37;;;;;;;13.60;7.23;;;;;;;;;;5132233;27;20197;-55
2023/07/31 07:31:03;;;;;;;13.40;7.27;;;;;;;;;;5130728;28;20222;-56
2023/07/31 07:33:29;;;;;;;12.30;7.40;;;;;;;;;;5131752;27;20721;-58
2023/07/31 07:35:55;;;;;;;14.97;8.10;;;;;;;;;;5131820;27;20663;-55
2023/07/31 07:38:21;;;;;;;13.40;8.20;;;;;;;;;;5130947;27;20316;-56
2023/07/31 07:40:50;;;;;;;14.77;8.50;;;;;;;;;;5131805;27;20193;-56
2023/07/31 07:43:17;;;;;;;12.53;8.00;;;;;;;;;;5131737;27;20201;-54
2023/07/31 07:45:43;;;;;;;14.00;8.37;;;;;;;;;;5132069;27;20569;-54
2023/07/31 07:48:09;;;;;;;13.57;7.50;;;;;;;;;;5131862;27;20254;-54
2023/07/31 07:50:36;;;;;;;17.27;8.47;;;;;;;;;;5131963;27;20225;-54
2023/07/31 07:53:02;;;;;;;15.20;7.50;;;;;;;;;;5135298;27;20681;-54
2023/07/31 07:55:28;;;;;;;19.70;7.50;;;;;;;;;;5131643;27;20204;-55
2023/07/31 07:57:55;;;;;;;15.00;8.43;;;;;;;;;;5135340;27;20284;-56
2023/07/31 08:00:22;;;;;;;18.20;7.83;;;;;;;;;;5134955;27;20189;-55
2023/07/31 08:02:48;;;;;;;18.73;7.50;;;;;;;;;;5135277;27;20282;-56
2023/07/31 08:05:14;;;;;;;12.67;6.67;;;;;;;;;;5135209;27;20206;-56
2023/07/31 08:07:40;;;;;;;10.93;6.57;;;;;;;;;;5133506;27;20204;-56
2023/07/31 08:10:07;;;;;;;13.03;7.27;;;;;;;;;;5134901;27;20221;-56
2023/07/31 08:12:33;;;;;;;13.97;6.97;;;;;;;;;;5134892;27;20193;-57
2023/07/31 08:15:00;;;;;;;11.37;6.70;;;;;;;;;;5134834;27;20190;-56
2023/07/31 08:17:27;;;;;;;12.47;7.03;;;;;;;;;;5134914;27;20204;-55
2023/07/31 08:19:53;;;;;;;10.00;6.13;;;;;;;;;;5134877;27;20700;-55
2023/07/31 08:22:19;;;;;;;10.30;5.87;;;;;;;;;;5134401;27;20197;-56
2023/07/31 08:24:45;;;;;;;11.90;6.47;;;;;;;;;;5134410;27;20776;-55
2023/07/31 08:27:11;;;;;;;10.87;5.43;;;;;;;;;;5134761;27;20225;-55
2023/07/31 08:29:37;;;;;;;8.90;5.43;;;;;;;;;;5134639;27;20202;-56
2023/07/31 08:32:03;;;;;;;10.37;5.60;;;;;;;;;;5134533;27;20698;-56
2023/07/31 08:34:31;;;;;;;13.40;6.63;;;;;;;;;;5134348;27;20236;-54
2023/07/31 08:36:57;;;;;;;9.97;5.70;;;;;;;;;;5134629;27;20201;-54
2023/07/31 08:39:23;;;;;;;11.43;6.30;;;;;;;;;;5134092;27;20272;-55
2023/07/31 08:41:49;;;;;;;8.23;5.93;;;;;;;;;;5134557;27;20217;-55
2023/07/31 08:44:16;;;;;;;13.77;5.60;;;;;;;;;;5134124;27;20217;-56
2023/07/31 08:46:42;;;;;;;10.80;6.17;;;;;;;;;;5133844;27;20197;-56
2023/07/31 08:49:08;;;;;;;8.27;5.27;;;;;;;;;;5133854;27;20560;-54
2023/07/31 08:51:36;;;;;;;10.40;6.30;;;;;;;;;;5133749;27;20229;-55
2023/07/31 08:54:05;;;;;;;7.07;5.13;;;;;;;;;;5133980;27;20203;-56
2023/07/31 08:56:32;;;;;;;9.07;5.30;;;;;;;;;;5133966;27;20201;-56
2023/07/31 08:58:59;;;;;;;9.97;5.37;;;;;;;;;;5134116;27;20262;-55
2023/07/31 09:01:25;;;;;;;11.20;5.40;;;;;;;;;;5133899;27;20564;-55
2023/07/31 09:03:51;;;;;;;9.53;5.03;;;;;;;;;;5132841;27;20197;-56
2023/07/31 09:06:19;;;;;;;11.50;5.20;;;;;;;;;;5133767;27;20681;-55
2023/07/31 09:08:47;;;;;;;10.07;5.40;;;;;;;;;;5133923;27;20243;-56
2023/07/31 09:11:13;;;;;;;8.00;4.17;;;;;;;;;;5133716;27;20229;-56
2023/07/31 09:13:40;;;;;;;8.07;4.87;;;;;;;;;;5131853;27;20688;-56
2023/07/31 09:16:06;;;;;;;8.07;4.30;;;;;;;;;;5133822;27;20645;-55
2023/07/31 09:18:32;;;;;;;4.20;3.47;;;;;;;;;;5133574;27;20688;-56
2023/07/31 09:21:02;;;;;;;6.60;4.00;;;;;;;;;;5133460;27;20194;-56
2023/07/31 09:23:40;;;;;;;6.50;3.83;;;;;;;;;;5133479;27;20194;-55
2023/07/31 09:26:07;;;;;;;7.10;3.80;;;;;;;;;;5133333;27;20229;-55
2023/07/31 09:28:33;;;;;;;6.50;3.63;;;;;;;;;;5133564;27;20284;-56
2023/07/31 09:30:59;;;;;;;9.20;3.90;;;;;;;;;;5133567;27;20678;-55
2023/07/31 09:33:25;;;;;;;6.13;3.30;;;;;;;;;;5133435;27;20269;-59
2023/07/31 09:35:51;;;;;;;6.97;3.60;;;;;;;;;;5133536;27;20234;-56
2023/07/31 09:38:18;;;;;;;5.60;3.90;;;;;;;;;;5133238;27;20193;-57
2023/07/31 09:40:45;;;;;;;5.20;3.40;;;;;;;;;;5133596;27;20612;-55
2023/07/31 09:43:14;;;;;;;5.30;3.77;;;;;;;;;;5133453;27;20234;-56
2023/07/31 09:45:40;;;;;;;7.47;4.03;;;;;;;;;;5133372;27;20210;-56
2023/07/31 09:48:08;;;;;;;6.57;4.10;;;;;;;;;;5133445;27;20280;-55
2023/07/31 09:50:36;;;;;;;4.83;3.97;;;;;;;;;;5133064;27;20232;-55
2023/07/31 09:53:02;;;;;;;5.97;4.33;;;;;;;;;;5133087;27;20224;-55
2023/07/31 09:55:29;;;;;;;5.43;3.90;;;;;;;;;;5133066;27;20250;-57
2023/07/31 09:57:58;;;;;;;4.80;4.23;;;;;;;;;;5133376;27;20194;-56
2023/07/31 10:00:28;;;;;;;4.90;4.47;;;;;;;;;;5132865;27;20243;-57
2023/07/31 10:02:54;;;;;;;5.17;4.47;;;;;;;;;;5129308;27;20203;-56
2023/07/31 10:05:21;;;;;;;5.40;4.90;;;;;;;;;;5132853;27;20648;-56
2023/07/31 10:07:51;;;;;;;5.80;4.20;;;;;;;;;;5132873;27;20224;-56
2023/07/31 10:10:18;;;;;;;4.17;3.83;;;;;;;;;;5132690;27;20692;-56
2023/07/31 10:12:44;;;;;;;7.20;5.23;;;;;;;;;;5132741;27;20193;-56
2023/07/31 10:15:10;;;;;;;7.60;5.30;;;;;;;;;;5132757;27;20278;-56
2023/07/31 10:17:38;;;;;;;4.77;4.37;;;;;;;;;;5132673;27;20189;-55
2023/07/31 10:20:05;;;;;;;4.90;4.33;;;;;;;;;;5132551;27;20535;-55
2023/07/31 10:22:32;;;;;;;4.80;4.30;;;;;;;;;;5132330;27;20203;-56
2023/07/31 10:24:58;;;;;;;6.17;5.03;;;;;;;;;;5130611;27;20213;-54
2023/07/31 10:27:24;;;;;;;6.07;4.33;;;;;;;;;;5120706;27;20203;-55
2023/07/31 10:29:51;;;;;;;6.67;5.00;;;;;;;;;;5126133;27;20233;-56
2023/07/31 10:32:17;;;;;;;4.27;3.87;;;;;;;;;;5132201;27;20228;-54
2023/07/31 10:34:45;;;;;;;5.33;4.20;;;;;;;;;;5129753;27;20261;-53
2023/07/31 10:37:23;;;;;;;6.00;4.47;;;;;;;;;;5131638;27;20251;-54
2023/07/31 10:39:56;;;;;;;4.20;3.80;;;;;;;;;;5132331;27;20194;-53
2023/07/31 10:42:28;;;;;;;3.50;3.20;;;;;;;;;;5132195;27;20201;-54
2023/07/31 10:44:55;;;;;;;4.37;3.70;;;;;;;;;;5132107;27;20706;-53
2023/07/31 10:47:21;;;;;;;3.43;3.13;;;;;;;;;;5132130;27;20209;-54
2023/07/31 10:49:49;;;;;;;3.43;3.13;;;;;;;;;;5132240;27;20706;-54
2023/07/31 10:52:22;;;;;;;3.93;3.50;;;;;;;;;;5132166;27;20226;-55
2023/07/31 10:54:48;;;;;;;3.40;3.20;;;;;;;;;;5132447;27;20251;-54
2023/07/31 10:57:21;;;;;;;4.20;3.40;;;;;;;;;;5132134;27;20197;-54
2023/07/31 10:59:47;;;;;;;3.50;3.20;;;;;;;;;;5132320;27;20202;-55
2023/07/31 11:02:25;;;;;;;5.17;2.97;;;;;;;;;;5132203;27;20196;-54
2023/07/31 11:05:07;;;;;;;3.00;2.80;;;;;;;;;;5131949;27;20535;-54
2023/07/31 11:07:48;;;;;;;3.37;3.00;;;;;;;;;;5131929;27;20231;-55
2023/07/31 11:10:17;;;;;;;3.60;3.30;;;;;;;;;;5131965;27;20202;-55
2023/07/31 11:12:43;;;;;;;3.40;2.97;;;;;;;;;;5131985;27;20204;-54
2023/07/31 11:15:11;;;;;;;2.60;2.40;;;;;;;;;;5131955;27;20225;-54
2023/07/31 11:17:38;;;;;;;2.70;2.40;;;;;;;;;;5132052;27;20275;-55
2023/07/31 11:20:05;;;;;;;4.93;2.60;;;;;;;;;;5132144;27;20200;-54
2023/07/31 11:22:31;;;;;;;2.30;2.03;;;;;;;;;;5131935;27;20661;-55
2023/07/31 11:24:58;;;;;;;2.73;2.30;;;;;;;;;;5131773;27;20252;-54
2023/07/31 11:27:28;;;;;;;2.43;2.27;;;;;;;;;;5130872;27;20293;-53
2023/07/31 11:29:54;;;;;;;2.07;1.90;;;;;;;;;;5134437;27;20292;-60
2023/07/31 11:32:20;;;;;;;2.80;2.30;;;;;;;;;;5135443;27;20279;-55
2023/07/31 11:34:52;;;;;;;2.10;2.00;;;;;;;;;;5135976;27;20201;-54
2023/07/31 11:37:18;;;;;;;3.07;2.23;;;;;;;;;;5135904;27;20568;-54
2023/07/31 11:39:44;;;;;;;2.40;2.20;;;;;;;;;;5136455;27;20198;-54
2023/07/31 11:42:11;;;;;;;2.60;2.40;;;;;;;;;;5136424;27;20251;-53
2023/07/31 11:44:38;;;;;;;3.90;2.97;;;;;;;;;;5136059;27;20226;-52
2023/07/31 11:47:04;;;;;;;2.47;2.30;;;;;;;;;;5135943;27;20286;-53
2023/07/31 11:49:30;;;;;;;3.30;2.80;;;;;;;;;;5135764;27;20196;-54
2023/07/31 11:51:56;;;;;;;2.90;2.70;;;;;;;;;;5134210;27;20226;-52
2023/07/31 11:54:22;;;;;;;5.53;2.50;;;;;;;;;;5135579;27;20204;-52
2023/07/31 11:56:50;;;;;;;3.10;2.47;;;;;;;;;;5136056;27;20198;-52
2023/07/31 11:59:17;;;;;;;2.23;2.03;;;;;;;;;;5135849;27;20194;-52
2023/07/31 12:01:43;;;;;;;2.33;2.10;;;;;;;;;;5135403;27;20233;-52
2023/07/31 12:04:10;;;;;;;2.70;2.50;;;;;;;;;;5135944;27;20635;-52
2023/07/31 12:06:36;;;;;;;2.40;2.20;;;;;;;;;;5135705;27;20196;-52
2023/07/31 12:09:03;;;;;;;2.53;2.33;;;;;;;;;;5133506;27;20207;-53
2023/07/31 12:11:29;;;;;;;2.67;2.47;;;;;;;;;;5135094;27;20230;-53
2023/07/31 12:13:55;;;;;;;2.30;2.10;;;;;;;;;;5135200;27;20208;-53
2023/07/31 12:16:26;;;;;;;3.00;2.50;;;;;;;;;;5135027;27;20714;-53
2023/07/31 12:18:53;;;;;;;2.80;2.60;;;;;;;;;;5117792;27;20297;-53
2023/07/31 12:21:20;;;;;;;2.93;2.70;;;;;;;;;;5131309;27;20195;-54
2023/07/31 12:23:46;;;;;;;2.63;2.43;;;;;;;;;;5133074;27;20190;-56
2023/07/31 12:26:13;;;;;;;4.27;3.87;;;;;;;;;;5131382;27;20219;-56
2023/07/31 12:28:41;;;;;;;3.17;2.80;;;;;;;;;;5135051;27;20202;-54
2023/07/31 12:31:09;;;;;;;2.93;2.30;;;;;;;;;;5135052;27;20745;-53
2023/07/31 12:33:37;;;;;;;2.70;2.30;;;;;;;;;;5134524;27;20229;-53
2023/07/31 12:36:04;;;;;;;2.70;2.50;;;;;;;;;;5135003;27;20201;-54
2023/07/31 12:38:31;;;;;;;2.23;2.13;;;;;;;;;;5133317;27;20555;-54
2023/07/31 12:40:57;;;;;;;4.47;2.53;;;;;;;;;;5134912;27;20674;-55
2023/07/31 12:43:23;;;;;;;2.60;2.40;;;;;;;;;;5134814;27;20201;-53
2023/07/31 12:45:49;;;;;;;3.20;2.90;;;;;;;;;;5134732;27;20210;-53
2023/07/31 12:48:15;;;;;;;3.30;3.00;;;;;;;;;;5134608;27;20206;-55
2023/07/31 12:50:42;;;;;;;3.10;2.90;;;;;;;;;;5134620;27;20221;-55
2023/07/31 12:53:09;;;;;;;3.30;3.00;;;;;;;;;;5134697;27;20207;-53
2023/07/31 12:55:36;;;;;;;3.00;2.70;;;;;;;;;;5132664;27;20204;-53
2023/07/31 12:58:02;;;;;;;3.00;2.80;;;;;;;;;;5134875;27;20277;-54
2023/07/31 13:00:28;;;;;;;3.07;2.77;;;;;;;;;;5134552;27;20560;-54
2023/07/31 13:02:54;;;;;;;3.00;2.80;;;;;;;;;;5134602;27;20196;-53
2023/07/31 13:05:20;;;;;;;3.00;2.50;;;;;;;;;;5134598;27;20283;-53
2023/07/31 13:07:48;;;;;;;3.57;2.50;;;;;;;;;;5134207;27;20198;-53
2023/07/31 13:10:15;;;;;;;2.67;2.43;;;;;;;;;;5134366;27;20215;-54
2023/07/31 13:12:41;;;;;;;2.57;2.37;;;;;;;;;;5134334;27;20281;-54
2023/07/31 13:15:07;;;;;;;2.53;2.33;;;;;;;;;;5134398;27;20562;-55
2023/07/31 13:17:34;;;;;;;2.40;2.20;;;;;;;;;;5119643;27;20280;-55
2023/07/31 13:20:00;;;;;;;2.20;2.10;;;;;;;;;;5133791;27;20672;-55
2023/07/31 13:22:26;;;;;;;2.93;2.47;;;;;;;;;;5133068;27;20214;-55
2023/07/31 13:24:53;;;;;;;2.60;2.40;;;;;;;;;;5133623;27;20222;-55
2023/07/31 13:27:21;;;;;;;2.70;2.50;;;;;;;;;;5133613;27;20199;-53
2023/07/31 13:29:47;;;;;;;2.43;2.30;;;;;;;;;;5125912;27;20209;-54
2023/07/31 13:32:13;;;;;;;3.07;2.87;;;;;;;;;;5133333;27;20230;-53
2023/07/31 13:34:39;;;;;;;2.40;2.20;;;;;;;;;;5132680;27;20296;-54
2023/07/31 13:37:08;;;;;;;2.53;2.33;;;;;;;;;;5133186;27;20188;-53
2023/07/31 13:39:34;;;;;;;3.57;2.30;;;;;;;;;;5133062;27;20194;-53
2023/07/31 13:42:02;;;;;;;2.27;2.07;;;;;;;;;;5133278;27;20674;-55
2023/07/31 13:44:28;;;;;;;2.43;2.10;;;;;;;;;;5132653;27;20198;-54
2023/07/31 13:46:54;;;;;;;3.87;2.37;;;;;;;;;;5130377;27;20219;-53
2023/07/31 13:49:20;;;;;;;2.23;2.07;;;;;;;;;;5130725;27;20203;-52
2023/07/31 13:51:46;;;;;;;2.30;2.10;;;;;;;;;;5132667;27;20227;-53
2023/07/31 13:54:13;;;;;;;2.40;2.20;;;;;;;;;;5132994;27;20256;-54
2023/07/31 13:56:39;;;;;;;2.10;2.00;;;;;;;;;;5132698;27;20200;-54
2023/07/31 13:59:06;;;;;;;2.37;2.17;;;;;;;;;;5132888;27;20212;-54
2023/07/31 14:01:32;;;;;;;2.47;1.97;;;;;;;;;;5132648;27;20297;-54
2023/07/31 14:03:58;;;;;;;2.60;2.40;;;;;;;;;;5132977;27;20212;-54
2023/07/31 14:06:24;;;;;;;3.90;2.40;;;;;;;;;;5132793;27;20260;-53
2023/07/31 14:08:50;;;;;;;2.50;2.30;;;;;;;;;;5132624;27;20200;-54
2023/07/31 14:11:16;;;;;;;2.73;2.27;;;;;;;;;;5132434;27;20273;-54
2023/07/31 14:13:42;;;;;;;2.17;2.03;;;;;;;;;;5132426;27;20194;-54
2023/07/31 14:16:10;;;;;;;2.67;2.40;;;;;;;;;;5132758;27;20227;-54
2023/07/31 14:18:36;;;;;;;2.47;2.27;;;;;;;;;;5132176;27;20253;-54
2023/07/31 14:21:02;;;;;;;2.60;2.40;;;;;;;;;;5131767;27;20197;-54
2023/07/31 14:23:28;;;;;;;2.67;2.47;;;;;;;;;;5130267;27;20254;-53
2023/07/31 14:25:54;;;;;;;3.37;2.17;;;;;;;;;;5132153;27;20602;-54
2023/07/31 14:28:20;;;;;;;2.73;2.53;;;;;;;;;;5132191;27;20229;-54
2023/07/31 14:30:46;;;;;;;2.97;2.77;;;;;;;;;;5131922;27;20226;-54
2023/07/31 14:33:13;;;;;;;3.30;2.53;;;;;;;;;;5132001;27;20232;-54
2023/07/31 14:35:39;;;;;;;4.03;3.00;;;;;;;;;;5131528;27;20242;-54
2023/07/31 14:38:05;;;;;;;2.93;2.73;;;;;;;;;;5131436;27;20776;-55